Terminal Aerodrome Forecast
Issued by NWS Cleveland, OH

Home | Current Version | Previous Version | Text Only | Print | Product List | Glossary On
Versions: 1 2 3 4 5 6 7 8 9 10 11 12 13 14 15 16
000
FTUS41 KCLE 211443 AAB
TAFYNG
TAF AMD
KYNG 211443Z 2115/2212 20004KT 1SM BR OVC001
     FM211600 18004KT 1SM BR OVC003
     FM211800 19005KT 3SM BR OVC006
     FM220200 20007KT 3SM BR OVC003
     FM221100 18007KT 3SM BR OVC015=

USA.gov is the U.S. government's official web portal to all federal, state and local government web resources and services.